OITM  Sahand  Airport

Maragheh, Iran

Add Bookmark
ICAO OITM
IATA ACP
Type Airport
Status Operational
Latitude
37° 20' 52" N
37.348000
Longitude
46° 7' 40" E
46.127899
Local (DST + 5) UTC (GMT + 4)
Aug 5, 2015 02:24 Aug 4, 2015 21:54
Sunrise-Sunset Local UTC
Begin Civil Twilight 06:03 01:33
Sunrise 06:31 02:01
Sunset 08:31 16:01
End Civil Twilight 08:59 16:29
VFR
VFR
MVFR
MVFR
IFR
IFR
LIFR
LIFR
Unknown
Unavailable

Current Weather

METAR Observed VFR
OITM 042100Z 08018G28KT 9999 FEW035 SCT190 29/02 Q1015 Tue, Aug 4, 2015 @ 21:00 UTC
(54 Minutes ago)
Visual Flight Rules
Wind Visibility Clouds Conditions
080° at 18 knots (33 kph)
Gusting to 28 knots (52 kph)
10 km or more
  • Few at 3,500 ft AGL
  • Scattered at 19,000 ft AGL
  • No significant weather
Temperatures Readings Precipitation
Current Temp
29°C
84°F
Dewpoint
2°C
36°F
Humidity 18%
Altimeter 29.97" Hg
Sea Level Pressure 1,015 mb
Field Elevation
1,340 m
4,396 ft
None Recorded
-
-

CheckWX.com is intended as a tool to help pilots better visualize weather data. It is not intended as a substitute for an official weather briefing obtained from a Flight Service Station. CheckWX.com does not meet the FAA requirements for an official pre-flight weather briefing. Therefore, it's important that pilots still call and obtain an official FSS pre-flight weather briefing.

© 2007-2015 CheckWX.com
21:54:46 UTC